createdAt,value
2023-04-17T00:00:06.695Z,9.20
2023-04-17T00:02:33.095Z,9.10
2023-04-17T00:04:59.330Z,9.20
2023-04-17T00:07:27.730Z,9.10
2023-04-17T00:09:53.910Z,9.10
2023-04-17T00:12:20.180Z,9.10
2023-04-17T00:14:47.102Z,9.00
2023-04-17T00:17:13.248Z,9.00
2023-04-17T00:19:39.420Z,9.00
2023-04-17T00:22:05.553Z,9.00
2023-04-17T00:24:31.699Z,9.00
2023-04-17T00:26:58.230Z,9.10
2023-04-17T00:29:24.484Z,8.90
2023-04-17T00:31:51.168Z,8.80
2023-04-17T00:34:17.420Z,8.80
2023-04-17T00:36:43.660Z,8.70
2023-04-17T00:39:10.090Z,8.50
2023-04-17T00:41:36.580Z,9.00
2023-04-17T00:44:02.771Z,8.30
2023-04-17T00:46:29.107Z,8.10
2023-04-17T00:48:55.346Z,8.00
2023-04-17T00:51:21.584Z,8.00
2023-04-17T00:53:47.769Z,8.00
2023-04-17T00:56:14.006Z,7.80
2023-04-17T00:58:40.244Z,7.80
2023-04-17T01:01:06.571Z,7.80
2023-04-17T01:03:33.012Z,7.70
2023-04-17T01:05:59.758Z,7.60
2023-04-17T01:08:25.955Z,7.50
2023-04-17T01:10:52.212Z,7.50
2023-04-17T01:13:18.361Z,7.50
2023-04-17T01:15:46.292Z,7.40
2023-04-17T01:18:12.426Z,7.40
2023-04-17T01:20:38.681Z,7.50
2023-04-17T01:23:04.848Z,7.50
2023-04-17T01:25:31.099Z,7.50
2023-04-17T01:27:57.352Z,7.50
2023-04-17T01:30:23.647Z,7.60
2023-04-17T01:32:49.819Z,7.60
2023-04-17T01:35:16.317Z,7.60
2023-04-17T01:37:42.453Z,7.60
2023-04-17T01:40:09.761Z,7.50
2023-04-17T01:42:35.973Z,7.60
2023-04-17T01:45:02.515Z,7.60
2023-04-17T01:47:28.801Z,7.50
2023-04-17T01:49:55.052Z,7.50
2023-04-17T01:52:21.244Z,7.60
2023-04-17T01:54:47.365Z,7.60
2023-04-17T01:57:13.587Z,7.60
2023-04-17T01:59:39.773Z,7.70
2023-04-17T02:02:06.050Z,7.70
2023-04-17T02:04:32.581Z,7.70
2023-04-17T02:06:59.116Z,7.70
2023-04-17T02:09:26.337Z,7.70
2023-04-17T02:11:52.570Z,7.80
2023-04-17T02:14:18.720Z,7.70
2023-04-17T02:16:45.456Z,7.70
2023-04-17T02:19:12.415Z,7.70
2023-04-17T02:21:38.745Z,7.70
2023-04-17T02:24:06.374Z,7.70
2023-04-17T02:26:32.574Z,7.60
2023-04-17T02:28:58.709Z,7.50
2023-04-17T02:31:25.021Z,7.50
2023-04-17T02:33:51.233Z,7.40
2023-04-17T02:36:17.519Z,7.40
2023-04-17T02:38:43.704Z,7.40
2023-04-17T02:41:10.158Z,7.30
2023-04-17T02:43:36.556Z,7.30
2023-04-17T02:46:02.710Z,7.20
2023-04-17T02:48:28.938Z,7.10
2023-04-17T02:50:55.094Z,7.10
2023-04-17T02:53:21.288Z,7.20
2023-04-17T02:55:47.483Z,7.20
2023-04-17T02:58:13.641Z,7.20
2023-04-17T03:00:40.238Z,7.20
2023-04-17T03:03:07.129Z,7.20
2023-04-17T03:05:33.394Z,7.20
2023-04-17T03:07:59.652Z,7.30
2023-04-17T03:10:25.954Z,7.30
2023-04-17T03:12:52.555Z,7.30
2023-04-17T03:15:18.714Z,7.20
2023-04-17T03:17:45.215Z,7.20
2023-04-17T03:20:11.665Z,7.20
2023-04-17T03:22:37.847Z,7.20
2023-04-17T03:25:05.207Z,7.20
2023-04-17T03:27:31.441Z,7.20
2023-04-17T03:29:57.605Z,7.10
2023-04-17T03:32:23.767Z,7.30
2023-04-17T03:34:50.037Z,7.20
2023-04-17T03:37:16.261Z,7.30
2023-04-17T03:39:42.418Z,7.30
2023-04-17T03:42:11.369Z,7.30
2023-04-17T03:44:37.517Z,7.30
2023-04-17T03:47:03.674Z,7.30
2023-04-17T03:49:29.813Z,7.30
2023-04-17T03:51:56.710Z,7.40
2023-04-17T03:54:22.858Z,7.40
2023-04-17T03:56:48.999Z,7.40
2023-04-17T03:59:15.216Z,7.40
2023-04-17T04:01:42.955Z,7.40
2023-04-17T04:04:10.569Z,7.40
2023-04-17T04:06:38.801Z,7.40
2023-04-17T04:09:05.185Z,7.50
2023-04-17T04:11:31.358Z,7.50
2023-04-17T04:13:57.526Z,7.60
2023-04-17T04:16:24.242Z,7.80
2023-04-17T04:18:50.541Z,8.10
2023-04-17T04:21:16.785Z,8.40
2023-04-17T04:23:44.869Z,8.60
2023-04-17T04:26:11.270Z,8.60
2023-04-17T04:28:37.586Z,8.50
2023-04-17T04:31:04.188Z,8.40
2023-04-17T04:33:30.616Z,8.20
2023-04-17T04:36:00.307Z,8.20
2023-04-17T04:38:30.216Z,8.10
2023-04-17T04:41:00.870Z,8.10
2023-04-17T04:43:28.377Z,8.00
2023-04-17T04:45:55.118Z,8.10
2023-04-17T04:48:21.277Z,8.20
2023-04-17T04:50:47.476Z,8.20
2023-04-17T04:53:13.642Z,8.20
2023-04-17T04:55:39.940Z,8.20
2023-04-17T04:58:06.156Z,8.20
2023-04-17T05:00:32.489Z,8.30
2023-04-17T05:02:58.944Z,8.30
2023-04-17T05:05:25.864Z,8.50
2023-04-17T05:07:54.171Z,8.50
2023-04-17T05:10:20.826Z,8.60
2023-04-17T05:12:47.382Z,8.70
2023-04-17T05:15:13.632Z,8.80
2023-04-17T05:17:40.988Z,8.80
2023-04-17T05:20:11.594Z,8.90
2023-04-17T05:22:38.483Z,9.10
2023-04-17T05:25:05.335Z,9.20
2023-04-17T05:27:31.593Z,9.30
2023-04-17T05:29:57.794Z,9.80
2023-04-17T05:32:24.359Z,10.10
2023-04-17T05:34:50.741Z,11.10
2023-04-17T05:37:17.230Z,11.30
2023-04-17T05:39:43.713Z,11.50
2023-04-17T05:42:09.945Z,11.90
2023-04-17T05:44:36.251Z,11.60
2023-04-17T05:47:02.740Z,11.00
2023-04-17T05:49:29.549Z,11.20
2023-04-17T05:51:55.658Z,11.10
2023-04-17T05:54:22.091Z,11.80
2023-04-17T05:56:49.350Z,12.20
2023-04-17T05:59:15.791Z,13.40
2023-04-17T06:01:43.017Z,12.40
2023-04-17T06:04:09.413Z,13.20
2023-04-17T06:06:35.959Z,13.50
2023-04-17T06:09:03.759Z,12.90
2023-04-17T06:11:29.987Z,15.20
2023-04-17T06:13:56.434Z,15.40
2023-04-17T06:16:22.915Z,16.00
2023-04-17T06:18:49.115Z,15.40
2023-04-17T06:21:15.636Z,16.60
2023-04-17T06:23:42.114Z,17.70
2023-04-17T06:26:10.204Z,16.70
2023-04-17T06:28:36.398Z,17.00
2023-04-17T06:31:02.684Z,18.10
2023-04-17T06:33:28.905Z,19.90
2023-04-17T06:35:55.560Z,19.60
2023-04-17T06:38:21.866Z,19.60
2023-04-17T06:40:48.064Z,17.50
2023-04-17T06:43:17.344Z,17.30
2023-04-17T06:45:43.583Z,15.40
2023-04-17T06:48:09.962Z,15.20
2023-04-17T06:50:36.232Z,16.60
2023-04-17T06:53:02.424Z,16.60
2023-04-17T06:55:28.884Z,17.10
2023-04-17T06:57:55.023Z,17.10
2023-04-17T07:00:22.258Z,16.40
2023-04-17T07:02:48.619Z,17.30
2023-04-17T07:05:15.185Z,15.90
2023-04-17T07:07:41.446Z,17.10
2023-04-17T07:10:08.087Z,16.50
2023-04-17T07:12:34.250Z,17.50
2023-04-17T07:15:00.812Z,16.10
2023-04-17T07:17:27.593Z,15.70
2023-04-17T07:19:53.872Z,16.50
2023-04-17T07:22:20.144Z,17.40
2023-04-17T07:24:46.436Z,15.70
2023-04-17T07:27:12.718Z,15.60
2023-04-17T07:29:39.117Z,16.90
2023-04-17T07:32:06.348Z,16.10
2023-04-17T07:34:33.765Z,15.00
2023-04-17T07:37:00.681Z,14.20
2023-04-17T07:39:29.957Z,14.90
2023-04-17T07:41:56.123Z,14.50
2023-04-17T07:44:22.394Z,14.00
2023-04-17T07:46:48.669Z,14.90
2023-04-17T07:49:15.347Z,15.20
2023-04-17T07:51:41.989Z,14.60
2023-04-17T07:54:08.244Z,15.90
2023-04-17T07:56:35.927Z,16.00
2023-04-17T07:59:02.852Z,15.90
2023-04-17T08:01:29.054Z,16.50
2023-04-17T08:03:55.728Z,16.90
2023-04-17T08:06:22.542Z,15.90
2023-04-17T08:08:48.704Z,16.50
2023-04-17T08:11:15.301Z,18.20
2023-04-17T08:13:41.567Z,19.00
2023-04-17T08:16:08.451Z,18.40
2023-04-17T08:18:36.836Z,18.40
2023-04-17T08:21:03.790Z,19.30
2023-04-17T08:23:30.014Z,19.00
2023-04-17T08:25:56.351Z,17.80
2023-04-17T08:28:22.581Z,18.80
2023-04-17T08:30:48.810Z,18.00
2023-04-17T08:33:17.431Z,17.20
2023-04-17T08:35:44.233Z,16.40
2023-04-17T08:38:13.365Z,16.50
2023-04-17T08:40:42.210Z,16.90
2023-04-17T08:43:19.365Z,17.40
2023-04-17T08:45:53.030Z,16.20
2023-04-17T08:48:20.392Z,15.30
2023-04-17T08:50:51.387Z,16.70
2023-04-17T08:53:17.749Z,16.30
2023-04-17T08:55:44.799Z,15.90
2023-04-17T08:58:12.076Z,15.50
2023-04-17T09:00:42.656Z,15.70
2023-04-17T09:03:10.510Z,15.60
2023-04-17T09:05:37.387Z,14.70
2023-04-17T09:08:23.356Z,15.70
2023-04-17T09:10:51.006Z,16.30
2023-04-17T09:13:18.648Z,15.60
2023-04-17T09:15:45.809Z,14.90
2023-04-17T09:18:27.501Z,14.40
2023-04-17T09:20:53.840Z,14.20
2023-04-17T09:23:20.828Z,13.80
2023-04-17T09:25:47.350Z,13.50
2023-04-17T09:28:15.384Z,13.30
2023-04-17T09:30:42.241Z,13.80
2023-04-17T09:33:09.169Z,13.80
2023-04-17T09:35:39.728Z,14.30
2023-04-17T09:38:06.617Z,14.30
2023-04-17T09:40:37.469Z,13.90
2023-04-17T09:43:04.813Z,14.00
2023-04-17T09:45:35.786Z,14.10
2023-04-17T09:48:11.962Z,14.60
2023-04-17T09:50:38.974Z,14.90
2023-04-17T09:53:06.448Z,14.50
2023-04-17T09:55:32.769Z,14.80
2023-04-17T09:58:04.777Z,15.80
2023-04-17T10:00:31.240Z,15.60
2023-04-17T10:02:58.179Z,15.80
2023-04-17T10:05:29.366Z,16.10
2023-04-17T10:07:56.094Z,15.40
2023-04-17T10:10:32.833Z,16.80
2023-04-17T10:13:00.435Z,16.20
2023-04-17T10:15:26.895Z,15.40
2023-04-17T10:17:55.952Z,14.80
2023-04-17T10:20:44.218Z,15.70
2023-04-17T10:26:03.057Z,15.50
2023-04-17T10:28:47.428Z,14.30
2023-04-17T10:31:13.707Z,15.70
2023-04-17T10:34:43.219Z,15.60
2023-04-17T10:37:14.598Z,15.60
2023-04-17T10:39:49.594Z,15.30
2023-04-17T10:42:19.964Z,15.30
2023-04-17T10:44:46.919Z,14.80
2023-04-17T10:47:16.331Z,14.80
2023-04-17T10:49:57.640Z,14.60
2023-04-17T10:53:41.048Z,14.60
2023-04-17T10:56:08.404Z,13.60
2023-04-17T10:58:55.076Z,14.00
2023-04-17T11:01:26.119Z,13.90
2023-04-17T11:03:53.256Z,13.90
2023-04-17T11:06:19.700Z,14.30
2023-04-17T11:08:46.654Z,14.60
2023-04-17T11:11:15.455Z,14.80
2023-04-17T11:13:47.321Z,14.90
2023-04-17T11:16:15.793Z,15.10
2023-04-17T11:18:44.920Z,14.30
2023-04-17T11:21:12.124Z,15.40
2023-04-17T11:23:38.653Z,16.20
2023-04-17T11:26:06.823Z,15.70
2023-04-17T11:28:35.558Z,15.80
2023-04-17T11:31:01.834Z,15.20
2023-04-17T11:33:34.043Z,15.20
2023-04-17T11:36:00.282Z,15.10
2023-04-17T11:38:27.086Z,15.80
2023-04-17T11:40:54.742Z,15.70
2023-04-17T11:43:21.874Z,15.30
2023-04-17T11:45:58.569Z,15.20
2023-04-17T11:48:29.120Z,16.10
2023-04-17T11:51:00.752Z,16.10
2023-04-17T11:53:27.086Z,16.30
2023-04-17T11:56:18.516Z,16.10
2023-04-17T11:58:51.924Z,15.60
2023-04-17T12:01:19.565Z,15.70
2023-04-17T12:03:47.508Z,16.10
2023-04-17T12:06:14.003Z,16.10
2023-04-17T12:08:49.517Z,16.10
2023-04-17T12:11:20.018Z,15.90
2023-04-17T12:13:46.263Z,16.10
2023-04-17T12:16:12.697Z,16.00
2023-04-17T12:18:39.021Z,15.90
2023-04-17T12:21:05.578Z,15.80
2023-04-17T12:23:31.796Z,15.60
2023-04-17T12:25:58.049Z,15.70
2023-04-17T12:28:24.364Z,15.70
2023-04-17T12:30:50.673Z,16.30
2023-04-17T12:33:16.889Z,15.80
2023-04-17T12:35:43.496Z,16.50
2023-04-17T12:38:10.063Z,16.20
2023-04-17T12:40:38.529Z,15.90
2023-04-17T12:43:04.712Z,15.90
2023-04-17T12:45:33.001Z,13.60
2023-04-17T12:47:59.262Z,15.60
2023-04-17T12:50:25.601Z,17.10
2023-04-17T12:52:51.882Z,16.50
2023-04-17T12:55:18.273Z,16.10
2023-04-17T12:57:45.535Z,16.00
2023-04-17T13:00:12.655Z,16.00
2023-04-17T13:02:39.005Z,16.00
2023-04-17T13:05:06.357Z,16.00
2023-04-17T13:07:32.710Z,16.00
2023-04-17T13:09:58.986Z,15.90
2023-04-17T13:12:25.446Z,16.60
2023-04-17T13:14:51.780Z,16.50
2023-04-17T13:17:17.989Z,16.10
2023-04-17T13:19:44.197Z,15.80
2023-04-17T13:22:10.472Z,15.90
2023-04-17T13:24:37.298Z,16.20
2023-04-17T13:27:03.713Z,16.50
2023-04-17T13:29:30.481Z,16.50
2023-04-17T13:31:56.852Z,16.00
2023-04-17T13:34:23.088Z,16.00
2023-04-17T13:36:49.445Z,15.70
2023-04-17T13:39:15.999Z,15.70
2023-04-17T13:41:42.476Z,15.70
2023-04-17T13:44:08.723Z,15.80
2023-04-17T13:46:35.213Z,16.00
2023-04-17T13:49:01.447Z,16.30
2023-04-17T13:51:27.697Z,16.50
2023-04-17T13:53:53.904Z,16.60
2023-04-17T13:56:22.737Z,18.20
2023-04-17T13:58:48.985Z,16.50
2023-04-17T14:01:15.190Z,16.10
2023-04-17T14:03:43.760Z,15.90
2023-04-17T14:06:10.895Z,15.70
2023-04-17T14:08:37.371Z,15.50
2023-04-17T14:11:03.580Z,15.30
2023-04-17T14:13:29.897Z,15.10
2023-04-17T14:15:56.207Z,14.90
2023-04-17T14:18:24.078Z,15.00
2023-04-17T14:20:52.838Z,14.90
2023-04-17T14:23:19.246Z,14.90
2023-04-17T14:25:45.398Z,14.90
2023-04-17T14:28:12.007Z,15.00
2023-04-17T14:30:38.314Z,14.90
2023-04-17T14:33:04.886Z,15.00
2023-04-17T14:35:32.240Z,15.30
2023-04-17T14:37:58.873Z,15.70
2023-04-17T14:40:25.070Z,15.50
2023-04-17T14:42:54.636Z,15.10
2023-04-17T14:45:21.547Z,15.00
2023-04-17T14:47:47.768Z,14.80
2023-04-17T14:50:14.517Z,14.80
2023-04-17T14:52:40.753Z,14.90
2023-04-17T14:55:08.100Z,15.00
2023-04-17T14:57:34.541Z,14.90
2023-04-17T15:00:00.861Z,15.00
2023-04-17T15:02:27.431Z,15.10
2023-04-17T15:04:54.189Z,15.10
2023-04-17T15:07:20.432Z,15.20
2023-04-17T15:09:46.619Z,15.50
2023-04-17T15:12:12.900Z,15.80
2023-04-17T15:14:39.125Z,16.10
2023-04-17T15:17:06.301Z,16.00
2023-04-17T15:19:33.355Z,16.50
2023-04-17T15:21:59.501Z,16.80
2023-04-17T15:24:25.795Z,16.10
2023-04-17T15:26:52.071Z,16.10
2023-04-17T15:29:18.255Z,15.70
2023-04-17T15:31:44.526Z,15.90
2023-04-17T15:34:12.810Z,15.70
2023-04-17T15:36:39.104Z,15.10
2023-04-17T15:39:05.701Z,14.80
2023-04-17T15:41:31.939Z,14.60
2023-04-17T15:43:58.122Z,14.50
2023-04-17T15:46:25.152Z,14.40
2023-04-17T15:49:04.932Z,14.50
2023-04-17T15:51:34.884Z,14.50
2023-04-17T15:54:01.054Z,14.60
2023-04-17T15:56:27.442Z,14.50
2023-04-17T15:58:53.636Z,14.30
2023-04-17T16:01:20.327Z,14.30
2023-04-17T16:03:47.311Z,14.10
2023-04-17T16:06:13.764Z,13.90
2023-04-17T16:08:40.003Z,13.70
2023-04-17T16:11:06.302Z,13.70
2023-04-17T16:13:32.507Z,13.60
2023-04-17T16:15:58.888Z,13.60
2023-04-17T16:18:25.333Z,13.60
2023-04-17T16:20:51.529Z,13.50
2023-04-17T16:23:17.817Z,13.50
2023-04-17T16:25:44.097Z,13.40
2023-04-17T16:28:10.350Z,13.40
2023-04-17T16:30:36.518Z,13.40
2023-04-17T16:33:03.433Z,13.40
2023-04-17T16:35:29.721Z,13.40
2023-04-17T16:37:56.061Z,13.30
2023-04-17T16:40:22.493Z,13.30
2023-04-17T16:42:48.667Z,13.30
2023-04-17T16:45:15.050Z,13.30
2023-04-17T16:47:41.302Z,13.20
2023-04-17T16:50:11.478Z,13.20
2023-04-17T16:52:39.661Z,13.20
2023-04-17T16:55:06.653Z,13.10
2023-04-17T16:57:37.298Z,13.10
2023-04-17T17:00:04.753Z,13.00
2023-04-17T17:02:31.381Z,13.00
2023-04-17T17:04:57.764Z,12.90
2023-04-17T17:07:24.014Z,12.90
2023-04-17T17:09:50.318Z,12.90
2023-04-17T17:12:16.597Z,12.80
2023-04-17T17:14:42.863Z,12.80
2023-04-17T17:17:09.111Z,12.80
2023-04-17T17:19:35.338Z,12.80
2023-04-17T17:22:01.705Z,12.80
2023-04-17T17:24:28.011Z,12.70
2023-04-17T17:26:54.436Z,12.70
2023-04-17T17:29:20.629Z,12.70
2023-04-17T17:31:48.093Z,12.70
2023-04-17T17:36:43.522Z,12.70
2023-04-17T17:39:09.781Z,12.60
2023-04-17T17:41:36.029Z,12.60
2023-04-17T17:44:02.348Z,12.60
2023-04-17T17:46:30.180Z,12.50
2023-04-17T17:48:56.616Z,12.40
2023-04-17T17:51:23.058Z,12.30
2023-04-17T17:53:50.404Z,12.30
2023-04-17T17:56:16.567Z,12.30
2023-04-17T17:58:42.755Z,12.20
2023-04-17T18:01:09.097Z,12.40
2023-04-17T18:03:35.480Z,12.40
2023-04-17T18:06:01.749Z,12.30
2023-04-17T18:08:28.148Z,12.20
2023-04-17T18:10:54.406Z,13.50
2023-04-17T18:13:20.590Z,12.20
2023-04-17T18:15:46.898Z,12.20
2023-04-17T18:18:13.203Z,12.10
2023-04-17T18:20:39.858Z,12.10
2023-04-17T18:23:06.148Z,12.00
2023-04-17T18:25:36.944Z,12.00
2023-04-17T18:28:03.250Z,12.00
2023-04-17T18:30:29.544Z,12.00
2023-04-17T18:32:56.047Z,12.00
2023-04-17T18:35:22.269Z,12.00
2023-04-17T18:37:48.425Z,12.00
2023-04-17T18:40:14.863Z,12.00
2023-04-17T18:42:41.055Z,12.00
2023-04-17T18:45:09.358Z,11.90
2023-04-17T18:47:36.103Z,11.90
2023-04-17T18:50:04.089Z,11.80
2023-04-17T18:52:31.612Z,11.80
2023-04-17T18:54:57.820Z,11.80
2023-04-17T18:57:24.190Z,11.70
2023-04-17T18:59:50.535Z,11.60
2023-04-17T19:02:16.853Z,11.60
2023-04-17T19:04:43.398Z,11.50
2023-04-17T19:07:09.801Z,11.40
2023-04-17T19:09:36.174Z,11.40
2023-04-17T19:12:05.766Z,11.30
2023-04-17T19:14:32.381Z,11.20
2023-04-17T19:16:58.910Z,11.20
2023-04-17T19:19:25.233Z,11.10
2023-04-17T19:21:54.803Z,11.10
2023-04-17T19:24:21.099Z,11.10
2023-04-17T19:26:47.464Z,10.80
2023-04-17T19:29:16.429Z,11.10
2023-04-17T19:31:42.875Z,11.00
2023-04-17T19:34:09.972Z,11.00
2023-04-17T19:36:36.851Z,11.00
2023-04-17T19:39:04.225Z,10.90
2023-04-17T19:41:30.518Z,10.90
2023-04-17T19:43:56.960Z,10.80
2023-04-17T19:46:23.296Z,10.80
2023-04-17T19:48:51.778Z,10.70
2023-04-17T19:51:18.000Z,10.70
2023-04-17T19:53:44.805Z,10.60
2023-04-17T19:56:11.153Z,10.60
2023-04-17T19:58:37.611Z,10.60
2023-04-17T20:01:03.938Z,10.50
2023-04-17T20:03:31.255Z,10.50
2023-04-17T20:05:57.820Z,10.50
2023-04-17T20:08:24.870Z,10.40
2023-04-17T20:10:51.045Z,10.30
2023-04-17T20:13:20.750Z,10.30
2023-04-17T20:15:49.665Z,8.50
2023-04-17T20:18:16.590Z,10.30
2023-04-17T20:20:42.758Z,10.20
2023-04-17T20:23:09.027Z,10.10
2023-04-17T20:25:35.680Z,10.10
2023-04-17T20:28:02.235Z,10.10
2023-04-17T20:30:29.809Z,10.10
2023-04-17T20:32:56.243Z,10.00
2023-04-17T20:35:25.435Z,10.00
2023-04-17T20:37:52.076Z,10.00
2023-04-17T20:40:18.823Z,10.00
2023-04-17T20:42:45.874Z,10.00
2023-04-17T20:45:12.070Z,10.00
2023-04-17T20:47:46.190Z,10.00
2023-04-17T20:50:21.624Z,10.00
2023-04-17T20:52:47.792Z,10.00
2023-04-17T20:55:14.862Z,10.00
2023-04-17T20:57:41.467Z,10.00
2023-04-17T21:00:08.958Z,10.00
2023-04-17T21:02:35.303Z,9.90
2023-04-17T21:05:01.669Z,9.90
2023-04-17T21:07:27.908Z,9.90
2023-04-17T21:09:54.242Z,9.80
2023-04-17T21:12:21.060Z,9.80
2023-04-17T21:14:47.381Z,9.80
2023-04-17T21:17:13.657Z,9.80
2023-04-17T21:19:40.159Z,9.70
2023-04-17T21:22:06.305Z,9.80
2023-04-17T21:24:32.633Z,9.70
2023-04-17T21:26:59.018Z,9.70
2023-04-17T21:29:26.494Z,9.70
2023-04-17T21:31:53.040Z,9.70
2023-04-17T21:34:19.605Z,9.70
2023-04-17T21:36:47.634Z,9.60
2023-04-17T21:39:14.364Z,9.60
2023-04-17T21:41:40.626Z,9.60
2023-04-17T21:44:06.836Z,9.60
2023-04-17T21:46:33.068Z,9.60
2023-04-17T21:48:59.254Z,9.50
2023-04-17T21:51:25.798Z,9.50
2023-04-17T21:53:52.050Z,9.50
2023-04-17T21:56:18.317Z,9.50
2023-04-17T21:58:44.545Z,9.50
2023-04-17T22:01:10.914Z,9.50
2023-04-17T22:03:37.125Z,9.50
2023-04-17T22:06:03.863Z,9.40
2023-04-17T22:08:30.085Z,9.50
2023-04-17T22:10:56.317Z,9.50
2023-04-17T22:13:22.477Z,9.40
2023-04-17T22:15:48.750Z,9.40
2023-04-17T22:18:14.992Z,9.40
2023-04-17T22:20:41.112Z,9.40
2023-04-17T22:23:07.245Z,9.40
2023-04-17T22:25:33.471Z,9.30
2023-04-17T22:27:59.753Z,9.40
2023-04-17T22:30:25.940Z,9.30
2023-04-17T22:32:52.164Z,9.30
2023-04-17T22:35:18.536Z,9.30
2023-04-17T22:37:44.862Z,9.40
2023-04-17T22:40:12.062Z,9.30
2023-04-17T22:42:38.251Z,9.30
2023-04-17T22:45:08.150Z,9.30
2023-04-17T22:47:34.313Z,9.30
2023-04-17T22:50:01.873Z,9.30
2023-04-17T22:52:28.009Z,9.20
2023-04-17T22:54:54.236Z,9.20
2023-04-17T22:57:20.413Z,9.20
2023-04-17T22:59:46.554Z,9.20
2023-04-17T23:02:12.857Z,11.30
2023-04-17T23:07:24.701Z,9.10
2023-04-17T23:09:51.140Z,9.10
2023-04-17T23:12:17.457Z,9.10
2023-04-17T23:14:45.356Z,9.20
2023-04-17T23:17:11.751Z,9.10
2023-04-17T23:19:38.085Z,9.10
2023-04-17T23:22:05.871Z,9.00
2023-04-17T23:24:35.685Z,9.00
2023-04-17T23:27:02.113Z,9.10
2023-04-17T23:29:28.560Z,9.10
2023-04-17T23:31:55.005Z,9.10
2023-04-17T23:34:21.369Z,9.10
2023-04-17T23:36:47.818Z,9.00
2023-04-17T23:39:14.040Z,9.10
2023-04-17T23:41:41.573Z,9.00
2023-04-17T23:44:08.762Z,9.00
2023-04-17T23:46:35.436Z,9.00
2023-04-17T23:49:02.443Z,9.00
2023-04-17T23:51:29.009Z,9.00
2023-04-17T23:53:58.175Z,9.00
2023-04-17T23:56:24.367Z,9.00
2023-04-17T23:58:50.531Z,9.00
